sensor_id;sensor_type;location;lat;lon;timestamp;pressure;altitude;pressure_sealevel;temperature;humidity
63622;BME280;49770;47.544;19.074;2023-08-21T02:33:19;100728.03;;;20.33;100.00
63622;BME280;49770;47.544;19.074;2023-08-21T02:36:23;100733.53;;;20.22;100.00
63622;BME280;49770;47.544;19.074;2023-08-21T02:39:26;100732.53;;;20.23;100.00
63622;BME280;49770;47.544;19.074;2023-08-21T02:42:28;100734.22;;;20.24;100.00
63622;BME280;49770;47.544;19.074;2023-08-21T02:45:31;100729.56;;;20.26;100.00
63622;BME280;49770;47.544;19.074;2023-08-21T02:48:34;100733.84;;;20.29;100.00
63622;BME280;49770;47.544;19.074;2023-08-21T02:51:36;100728.03;;;20.33;100.00
63622;BME280;49770;47.544;19.074;2023-08-21T02:54:39;100734.03;;;20.37;100.00
63622;BME280;49770;47.544;19.074;2023-08-21T02:57:43;100733.78;;;20.40;100.00
63622;BME280;49770;47.544;19.074;2023-08-21T03:00:47;100733.50;;;20.43;100.00
63622;BME280;49770;47.544;19.074;2023-08-21T03:04:50;100725.34;;;20.55;100.00
63622;BME280;49770;47.544;19.074;2023-08-21T03:07:54;100730.25;;;20.50;100.00
63622;BME280;49770;47.544;19.074;2023-08-21T03:10:57;100732.00;;;20.51;100.00
63622;BME280;49770;47.544;19.074;2023-08-21T03:14:00;100723.91;;;20.51;100.00
63622;BME280;49770;47.544;19.074;2023-08-21T03:17:02;100721.22;;;20.51;100.00
63622;BME280;49770;47.544;19.074;2023-08-21T03:20:06;100727.72;;;20.48;100.00
63622;BME280;49770;47.544;19.074;2023-08-21T03:23:09;100727.84;;;20.46;100.00
63622;BME280;49770;47.544;19.074;2023-08-21T03:28:42;100725.28;;;20.45;100.00
63622;BME280;49770;47.544;19.074;2023-08-21T03:36:18;100729.69;;;20.77;100.00
63622;BME280;49770;47.544;19.074;2023-08-21T03:39:22;100729.69;;;20.77;100.00
63622;BME280;49770;47.544;19.074;2023-08-21T03:42:25;100733.53;;;20.22;100.00
63622;BME280;49770;47.544;19.074;2023-08-21T03:45:28;100736.13;;;20.12;100.00
63622;BME280;49770;47.544;19.074;2023-08-21T03:48:31;100740.78;;;20.10;100.00
63622;BME280;49770;47.544;19.074;2023-08-21T03:51:36;100748.75;;;20.12;100.00
63622;BME280;49770;47.544;19.074;2023-08-21T03:54:38;100748.16;;;20.08;100.00
63622;BME280;49770;47.544;19.074;2023-08-21T04:09:23;100730.03;;;20.84;100.00
63622;BME280;49770;47.544;19.074;2023-08-21T04:12:26;100730.03;;;20.84;100.00
63622;BME280;49770;47.544;19.074;2023-08-21T04:15:31;100730.94;;;20.20;100.00
63622;BME280;49770;47.544;19.074;2023-08-21T04:18:34;100731.19;;;20.17;100.00
63622;BME280;49770;47.544;19.074;2023-08-21T04:21:43;100732.06;;;20.18;100.00
63622;BME280;49770;47.544;19.074;2023-08-21T04:24:46;100743.44;;;20.22;100.00
63622;BME280;49770;47.544;19.074;2023-08-21T04:27:49;100745.47;;;20.29;100.00
63622;BME280;49770;47.544;19.074;2023-08-21T04:30:52;100748.16;;;20.29;100.00
63622;BME280;49770;47.544;19.074;2023-08-21T04:33:54;100754.53;;;20.28;100.00
63622;BME280;49770;47.544;19.074;2023-08-21T04:36:57;100746.19;;;20.31;100.00
63622;BME280;49770;47.544;19.074;2023-08-21T04:40:00;100759.25;;;20.36;100.00
63622;BME280;49770;47.544;19.074;2023-08-21T04:43:03;100754.59;;;20.38;100.00
63622;BME280;49770;47.544;19.074;2023-08-21T04:46:06;100752.09;;;20.46;100.00
63622;BME280;49770;47.544;19.074;2023-08-21T04:49:10;100750.59;;;20.54;100.00
63622;BME280;49770;47.544;19.074;2023-08-21T04:52:13;100749.06;;;20.61;100.00
63622;BME280;49770;47.544;19.074;2023-08-21T04:55:16;100751.97;;;20.69;100.00
63622;BME280;49770;47.544;19.074;2023-08-21T04:58:19;100746.75;;;20.78;100.00
63622;BME280;49770;47.544;19.074;2023-08-21T05:01:22;100752.91;;;20.90;100.00
63622;BME280;49770;47.544;19.074;2023-08-21T05:04:24;100765.59;;;20.99;100.00
63622;BME280;49770;47.544;19.074;2023-08-21T05:07:28;100768.34;;;21.09;100.00
63622;BME280;49770;47.544;19.074;2023-08-21T05:10:32;100765.25;;;21.23;100.00
63622;BME280;49770;47.544;19.074;2023-08-21T05:16:05;100760.78;;;21.44;100.00
63622;BME280;49770;47.544;19.074;2023-08-21T05:19:08;100769.75;;;21.54;100.00
63622;BME280;49770;47.544;19.074;2023-08-21T05:22:11;100775.63;;;21.69;100.00
63622;BME280;49770;47.544;19.074;2023-08-21T05:25:14;100780.50;;;21.85;100.00
63622;BME280;49770;47.544;19.074;2023-08-21T05:28:17;100781.78;;;22.01;100.00
63622;BME280;49770;47.544;19.074;2023-08-21T05:31:21;100779.81;;;22.23;100.00
63622;BME280;49770;47.544;19.074;2023-08-21T05:34:24;100781.34;;;22.45;100.00
63622;BME280;49770;47.544;19.074;2023-08-21T05:37:28;100786.31;;;22.69;100.00
63622;BME280;49770;47.544;19.074;2023-08-21T05:40:31;100786.81;;;22.93;100.00
63622;BME280;49770;47.544;19.074;2023-08-21T05:43:34;100778.66;;;23.40;100.00
63622;BME280;49770;47.544;19.074;2023-08-21T05:46:37;100784.97;;;23.95;100.00
63622;BME280;49770;47.544;19.074;2023-08-21T05:49:41;100792.25;;;24.49;100.00
63622;BME280;49770;47.544;19.074;2023-08-21T05:52:46;100799.03;;;24.98;100.00
63622;BME280;49770;47.544;19.074;2023-08-21T05:55:49;100792.00;;;25.14;100.00
63622;BME280;49770;47.544;19.074;2023-08-21T05:58:52;100800.19;;;25.22;100.00
63622;BME280;49770;47.544;19.074;2023-08-21T06:01:58;100794.81;;;25.90;100.00
63622;BME280;49770;47.544;19.074;2023-08-21T06:05:01;100797.88;;;26.78;100.00
63622;BME280;49770;47.544;19.074;2023-08-21T06:08:05;100799.72;;;27.83;100.00
63622;BME280;49770;47.544;19.074;2023-08-21T06:11:09;100805.78;;;28.17;100.00
63622;BME280;49770;47.544;19.074;2023-08-21T06:14:11;100795.91;;;28.16;100.00
63622;BME280;49770;47.544;19.074;2023-08-21T06:17:14;100800.75;;;28.05;100.00
63622;BME280;49770;47.544;19.074;2023-08-21T06:20:17;100809.87;;;27.89;100.00
63622;BME280;49770;47.544;19.074;2023-08-21T06:23:21;100805.06;;;27.68;100.00
63622;BME280;49770;47.544;19.074;2023-08-21T06:26:24;100806.81;;;27.61;100.00
63622;BME280;49770;47.544;19.074;2023-08-21T06:29:27;100810.69;;;27.66;100.00
63622;BME280;49770;47.544;19.074;2023-08-21T06:32:33;100812.09;;;27.54;100.00
63622;BME280;49770;47.544;19.074;2023-08-21T06:35:37;100802.09;;;27.46;100.00
63622;BME280;49770;47.544;19.074;2023-08-21T06:38:40;100807.25;;;27.33;100.00
63622;BME280;49770;47.544;19.074;2023-08-21T06:41:43;100805.53;;;27.40;100.00
63622;BME280;49770;47.544;19.074;2023-08-21T06:44:48;100803.75;;;27.55;100.00
63622;BME280;49770;47.544;19.074;2023-08-21T06:47:50;100800.81;;;27.74;100.00
63622;BME280;49770;47.544;19.074;2023-08-21T06:50:53;100807.72;;;28.31;100.00
63622;BME280;49770;47.544;19.074;2023-08-21T06:53:56;100804.53;;;28.66;100.00
63622;BME280;49770;47.544;19.074;2023-08-21T06:56:58;100811.19;;;29.69;97.42
63622;BME280;49770;47.544;19.074;2023-08-21T07:00:01;100813.22;;;30.47;93.63
63622;BME280;49770;47.544;19.074;2023-08-21T07:03:05;100811.59;;;30.24;92.90
63622;BME280;49770;47.544;19.074;2023-08-21T07:06:10;100805.88;;;29.82;94.82
63622;BME280;49770;47.544;19.074;2023-08-21T07:09:13;100805.75;;;29.39;94.69
63622;BME280;49770;47.544;19.074;2023-08-21T07:12:16;100805.59;;;29.25;99.43
63622;BME280;49770;47.544;19.074;2023-08-21T07:15:18;100811.81;;;29.19;100.00
63622;BME280;49770;47.544;19.074;2023-08-21T07:18:22;100814.88;;;29.61;93.79
63622;BME280;49770;47.544;19.074;2023-08-21T07:21:25;100810.47;;;30.41;92.98
63622;BME280;49770;47.544;19.074;2023-08-21T07:24:35;100810.03;;;30.00;92.38
63622;BME280;49770;47.544;19.074;2023-08-21T07:27:38;100805.88;;;30.48;91.11
63622;BME280;49770;47.544;19.074;2023-08-21T07:30:41;100809.63;;;30.18;88.61
63622;BME280;49770;47.544;19.074;2023-08-21T07:33:44;100805.00;;;30.19;91.79
63622;BME280;49770;47.544;19.074;2023-08-21T07:36:47;100807.78;;;29.82;89.36
63622;BME280;49770;47.544;19.074;2023-08-21T07:39:49;100812.91;;;29.55;92.01
63622;BME280;49770;47.544;19.074;2023-08-21T07:42:52;100813.97;;;29.54;94.78
63622;BME280;49770;47.544;19.074;2023-08-21T07:45:55;100808.56;;;29.76;95.98
63622;BME280;49770;47.544;19.074;2023-08-21T07:48:58;100812.34;;;29.96;92.37
63622;BME280;49770;47.544;19.074;2023-08-21T07:52:02;100808.72;;;30.11;91.44
63622;BME280;49770;47.544;19.074;2023-08-21T07:55:05;100812.16;;;30.20;91.67
63622;BME280;49770;47.544;19.074;2023-08-21T07:58:08;100815.72;;;30.42;87.03
63622;BME280;49770;47.544;19.074;2023-08-21T08:01:11;100815.06;;;30.90;88.86
63622;BME280;49770;47.544;19.074;2023-08-21T08:04:14;100821.25;;;30.05;92.93
63622;BME280;49770;47.544;19.074;2023-08-21T08:07:16;100821.59;;;30.17;91.52
63622;BME280;49770;47.544;19.074;2023-08-21T08:10:19;100817.28;;;30.73;92.16
63622;BME280;49770;47.544;19.074;2023-08-21T08:13:22;100816.37;;;31.01;89.74
63622;BME280;49770;47.544;19.074;2023-08-21T08:16:24;100822.31;;;32.09;80.51
63622;BME280;49770;47.544;19.074;2023-08-21T08:19:30;100819.41;;;32.51;79.04
63622;BME280;49770;47.544;19.074;2023-08-21T08:22:33;100829.00;;;33.22;75.20
63622;BME280;49770;47.544;19.074;2023-08-21T08:25:35;100816.03;;;33.36;73.21
63622;BME280;49770;47.544;19.074;2023-08-21T08:28:38;100819.03;;;33.27;68.32
63622;BME280;49770;47.544;19.074;2023-08-21T08:31:41;100811.97;;;33.91;67.09
63622;BME280;49770;47.544;19.074;2023-08-21T08:34:44;100816.06;;;33.81;63.40
63622;BME280;49770;47.544;19.074;2023-08-21T08:37:49;100813.81;;;33.65;62.80
63622;BME280;49770;47.544;19.074;2023-08-21T08:40:53;100819.41;;;34.22;53.89
63622;BME280;49770;47.544;19.074;2023-08-21T08:43:57;100816.44;;;34.24;55.78
63622;BME280;49770;47.544;19.074;2023-08-21T08:47:03;100809.84;;;34.94;51.09
63622;BME280;49770;47.544;19.074;2023-08-21T08:50:07;100817.31;;;34.43;55.05
63622;BME280;49770;47.544;19.074;2023-08-21T08:53:12;100816.75;;;34.66;52.59
63622;BME280;49770;47.544;19.074;2023-08-21T08:56:18;100826.53;;;34.05;52.79
63622;BME280;49770;47.544;19.074;2023-08-21T08:59:22;100834.91;;;34.42;55.24
63622;BME280;49770;47.544;19.074;2023-08-21T09:02:25;100827.16;;;35.39;50.22
63622;BME280;49770;47.544;19.074;2023-08-21T09:05:29;100830.37;;;34.99;52.17
63622;BME280;49770;47.544;19.074;2023-08-21T09:08:32;100827.97;;;35.28;51.16
63622;BME280;49770;47.544;19.074;2023-08-21T09:11:34;100823.03;;;35.67;48.68
63622;BME280;49770;47.544;19.074;2023-08-21T09:14:39;100820.53;;;36.20;48.61
63622;BME280;49770;47.544;19.074;2023-08-21T09:17:42;100822.03;;;35.92;48.64
63622;BME280;49770;47.544;19.074;2023-08-21T09:20:44;100817.59;;;36.70;47.45
63622;BME280;49770;47.544;19.074;2023-08-21T09:23:48;100811.22;;;36.69;43.83
63622;BME280;49770;47.544;19.074;2023-08-21T09:26:52;100810.00;;;37.13;45.74
63622;BME280;49770;47.544;19.074;2023-08-21T09:29:57;100810.44;;;37.33;44.49
63622;BME280;49770;47.544;19.074;2023-08-21T09:33:00;100819.81;;;37.32;42.37
63622;BME280;49770;47.544;19.074;2023-08-21T09:36:03;100804.78;;;37.86;43.52
63622;BME280;49770;47.544;19.074;2023-08-21T09:39:15;100800.28;;;37.97;44.03
63622;BME280;49770;47.544;19.074;2023-08-21T09:42:19;100804.09;;;38.25;39.83
63622;BME280;49770;47.544;19.074;2023-08-21T09:45:25;100802.56;;;38.18;39.71
63622;BME280;49770;47.544;19.074;2023-08-21T09:56:18;100790.56;;;38.63;36.85
63622;BME280;49770;47.544;19.074;2023-08-21T09:59:23;100796.87;;;37.49;39.55
63622;BME280;49770;47.544;19.074;2023-08-21T10:02:51;100788.31;;;38.82;37.66
63622;BME280;49770;47.544;19.074;2023-08-21T10:05:58;100788.22;;;39.67;37.38
63622;BME280;49770;47.544;19.074;2023-08-21T10:09:00;100792.22;;;41.69;33.21
63622;BME280;49770;47.544;19.074;2023-08-21T10:12:04;100789.44;;;43.23;31.14
63622;BME280;49770;47.544;19.074;2023-08-21T10:15:07;100788.31;;;42.38;31.81
63622;BME280;49770;47.544;19.074;2023-08-21T10:18:24;100783.03;;;41.74;33.40
63622;BME280;49770;47.544;19.074;2023-08-21T10:21:34;100776.41;;;41.06;35.57
63622;BME280;49770;47.544;19.074;2023-08-21T10:24:37;100772.19;;;39.74;35.80
63622;BME280;49770;47.544;19.074;2023-08-21T10:27:41;100765.41;;;39.59;36.28
63622;BME280;49770;47.544;19.074;2023-08-21T10:30:45;100764.53;;;39.31;38.02
63622;BME280;49770;47.544;19.074;2023-08-21T10:33:48;100762.47;;;40.04;34.78
63622;BME280;49770;47.544;19.074;2023-08-21T10:40:02;100766.88;;;39.72;34.19
63622;BME280;49770;47.544;19.074;2023-08-21T10:43:37;100765.31;;;40.52;32.92
63622;BME280;49770;47.544;19.074;2023-08-21T10:46:50;100773.50;;;42.63;29.49
63622;BME280;49770;47.544;19.074;2023-08-21T10:50:00;100770.84;;;45.40;25.21
63622;BME280;49770;47.544;19.074;2023-08-21T10:53:03;100773.28;;;45.80;24.32
63622;BME280;49770;47.544;19.074;2023-08-21T10:56:07;100765.34;;;43.43;27.75
63622;BME280;49770;47.544;19.074;2023-08-21T10:59:09;100763.13;;;41.13;31.07
63622;BME280;49770;47.544;19.074;2023-08-21T11:02:14;100757.50;;;39.73;31.79
63622;BME280;49770;47.544;19.074;2023-08-21T11:05:16;100752.63;;;38.29;33.60
63622;BME280;49770;47.544;19.074;2023-08-21T11:08:20;100763.31;;;37.28;37.73
63622;BME280;49770;47.544;19.074;2023-08-21T11:11:22;100744.25;;;37.15;38.87
63622;BME280;49770;47.544;19.074;2023-08-21T11:14:26;100747.56;;;37.58;35.90
63622;BME280;49770;47.544;19.074;2023-08-21T11:17:28;100742.28;;;36.74;35.64
63622;BME280;49770;47.544;19.074;2023-08-21T11:20:33;100745.37;;;37.31;36.27
63622;BME280;49770;47.544;19.074;2023-08-21T11:27:17;100745.97;;;37.96;33.73
63622;BME280;49770;47.544;19.074;2023-08-21T11:30:22;100741.81;;;37.06;36.48
63622;BME280;49770;47.544;19.074;2023-08-21T11:33:27;100734.72;;;36.70;38.19
63622;BME280;49770;47.544;19.074;2023-08-21T11:36:30;100729.84;;;35.51;37.67
63622;BME280;49770;47.544;19.074;2023-08-21T11:39:48;100731.03;;;35.73;41.57
63622;BME280;49770;47.544;19.074;2023-08-21T11:42:51;100729.91;;;36.05;39.77
63622;BME280;49770;47.544;19.074;2023-08-21T11:45:54;100732.06;;;36.51;38.13
63622;BME280;49770;47.544;19.074;2023-08-21T11:49:01;100726.81;;;36.61;38.11
63622;BME280;49770;47.544;19.074;2023-08-21T11:52:05;100724.56;;;35.92;38.52
63622;BME280;49770;47.544;19.074;2023-08-21T11:55:11;100726.44;;;35.37;38.78
63622;BME280;49770;47.544;19.074;2023-08-21T11:58:17;100720.16;;;35.17;40.14
63622;BME280;49770;47.544;19.074;2023-08-21T12:01:21;100717.44;;;35.29;39.73
63622;BME280;49770;47.544;19.074;2023-08-21T12:04:25;100714.25;;;35.44;39.06
63622;BME280;49770;47.544;19.074;2023-08-21T12:07:28;100709.06;;;35.36;39.04
63622;BME280;49770;47.544;19.074;2023-08-21T12:10:33;100704.03;;;35.33;37.81
63622;BME280;49770;47.544;19.074;2023-08-21T12:13:35;100703.00;;;35.46;37.30
63622;BME280;49770;47.544;19.074;2023-08-21T12:23:45;100703.28;;;35.26;38.07
63622;BME280;49770;47.544;19.074;2023-08-21T12:26:47;100704.22;;;35.19;38.03
63622;BME280;49770;47.544;19.074;2023-08-21T12:29:52;100708.09;;;35.30;37.74
63622;BME280;49770;47.544;19.074;2023-08-21T12:32:55;100700.63;;;35.19;37.71
63622;BME280;49770;47.544;19.074;2023-08-21T12:36:07;100702.34;;;35.32;37.64
63622;BME280;49770;47.544;19.074;2023-08-21T12:39:12;100692.78;;;34.85;39.72
63622;BME280;49770;47.544;19.074;2023-08-21T12:42:16;100691.72;;;34.67;40.83
63622;BME280;49770;47.544;19.074;2023-08-21T12:45:20;100691.00;;;35.10;38.83
63622;BME280;49770;47.544;19.074;2023-08-21T12:48:22;100697.47;;;35.15;38.98
63622;BME280;49770;47.544;19.074;2023-08-21T12:51:25;100689.97;;;35.23;38.50
63622;BME280;49770;47.544;19.074;2023-08-21T12:54:29;100693.97;;;34.89;40.97
63622;BME280;49770;47.544;19.074;2023-08-21T12:57:32;100680.78;;;34.17;42.00
63622;BME280;49770;47.544;19.074;2023-08-21T13:00:35;100681.00;;;34.15;42.46
63622;BME280;49770;47.544;19.074;2023-08-21T13:03:38;100675.69;;;33.88;42.73
63622;BME280;49770;47.544;19.074;2023-08-21T13:06:41;100682.09;;;34.14;41.87
63622;BME280;49770;47.544;19.074;2023-08-21T13:09:44;100671.22;;;34.19;40.24
63622;BME280;49770;47.544;19.074;2023-08-21T13:12:46;100671.47;;;34.55;38.63
63622;BME280;49770;47.544;19.074;2023-08-21T13:15:49;100667.16;;;34.66;38.67
63622;BME280;49770;47.544;19.074;2023-08-21T13:18:53;100669.09;;;33.96;40.57
63622;BME280;49770;47.544;19.074;2023-08-21T13:21:56;100663.59;;;34.21;41.86
63622;BME280;49770;47.544;19.074;2023-08-21T13:24:59;100658.13;;;34.59;39.26
63622;BME280;49770;47.544;19.074;2023-08-21T13:28:02;100657.87;;;34.41;40.54
63622;BME280;49770;47.544;19.074;2023-08-21T13:31:06;100661.06;;;34.38;39.96
63622;BME280;49770;47.544;19.074;2023-08-21T13:34:10;100649.50;;;34.30;38.84
63622;BME280;49770;47.544;19.074;2023-08-21T13:37:13;100649.06;;;34.33;38.45
63622;BME280;49770;47.544;19.074;2023-08-21T13:40:15;100651.19;;;34.31;39.39
63622;BME280;49770;47.544;19.074;2023-08-21T13:43:19;100652.38;;;34.41;36.04
63622;BME280;49770;47.544;19.074;2023-08-21T13:46:23;100657.97;;;34.72;36.11
63622;BME280;49770;47.544;19.074;2023-08-21T13:49:26;100655.62;;;34.50;35.93
63622;BME280;49770;47.544;19.074;2023-08-21T13:52:28;100643.47;;;34.39;36.67
63622;BME280;49770;47.544;19.074;2023-08-21T13:55:31;100649.06;;;34.14;37.34
63622;BME280;49770;47.544;19.074;2023-08-21T13:58:34;100649.12;;;34.45;37.17
63622;BME280;49770;47.544;19.074;2023-08-21T14:01:39;100647.25;;;34.64;37.29
63622;BME280;49770;47.544;19.074;2023-08-21T14:07:59;100634.13;;;34.40;37.84
63622;BME280;49770;47.544;19.074;2023-08-21T14:11:02;100636.06;;;34.40;36.41
63622;BME280;49770;47.544;19.074;2023-08-21T14:14:05;100628.88;;;34.39;37.54
63622;BME280;49770;47.544;19.074;2023-08-21T14:17:08;100627.97;;;34.26;36.39
63622;BME280;49770;47.544;19.074;2023-08-21T14:20:11;100626.50;;;34.05;38.02
63622;BME280;49770;47.544;19.074;2023-08-21T14:23:14;100625.53;;;33.93;37.91
63622;BME280;49770;47.544;19.074;2023-08-21T14:26:16;100621.03;;;33.98;37.88
63622;BME280;49770;47.544;19.074;2023-08-21T14:29:19;100614.91;;;33.96;37.61
63622;BME280;49770;47.544;19.074;2023-08-21T14:32:22;100613.06;;;33.90;38.62
63622;BME280;49770;47.544;19.074;2023-08-21T14:35:25;100612.16;;;33.96;38.84
63622;BME280;49770;47.544;19.074;2023-08-21T14:38:27;100612.69;;;33.86;39.34
63622;BME280;49770;47.544;19.074;2023-08-21T14:41:30;100609.47;;;33.90;38.40
63622;BME280;49770;47.544;19.074;2023-08-21T14:44:33;100603.13;;;33.89;38.47
63622;BME280;49770;47.544;19.074;2023-08-21T14:47:36;100602.84;;;33.97;39.57
63622;BME280;49770;47.544;19.074;2023-08-21T14:50:40;100602.87;;;33.91;39.12
63622;BME280;49770;47.544;19.074;2023-08-21T14:53:43;100600.59;;;33.87;40.71
63622;BME280;49770;47.544;19.074;2023-08-21T14:56:45;100602.81;;;33.79;39.64
63622;BME280;49770;47.544;19.074;2023-08-21T14:59:49;100608.66;;;33.64;39.95
63622;BME280;49770;47.544;19.074;2023-08-21T15:02:51;100596.84;;;33.82;41.71
63622;BME280;49770;47.544;19.074;2023-08-21T15:05:54;100595.56;;;33.59;43.48
63622;BME280;49770;47.544;19.074;2023-08-21T15:08:57;100591.12;;;33.26;44.18
63622;BME280;49770;47.544;19.074;2023-08-21T15:12:00;100592.00;;;33.26;45.03
63622;BME280;49770;47.544;19.074;2023-08-21T15:15:03;100593.37;;;33.36;40.65
63622;BME280;49770;47.544;19.074;2023-08-21T15:18:06;100589.50;;;33.50;42.05
63622;BME280;49770;47.544;19.074;2023-08-21T15:21:09;100585.81;;;33.31;42.29
